createdAt,value
2019-01-12T00:01:17.585Z,97.40
2019-01-12T00:03:46.163Z,89.30
2019-01-12T00:06:14.611Z,87.23
2019-01-12T00:08:43.035Z,83.10
2019-01-12T00:11:11.820Z,91.80
2019-01-12T00:13:40.304Z,98.33
2019-01-12T00:16:51.312Z,99.63
2019-01-12T00:19:33.959Z,85.23
2019-01-12T00:22:04.162Z,87.77
2019-01-12T00:24:35.771Z,85.27
2019-01-12T00:27:06.826Z,94.63
2019-01-12T00:29:36.218Z,89.80
2019-01-12T00:32:06.566Z,82.40
2019-01-12T00:34:36.233Z,77.53
2019-01-12T00:37:05.456Z,77.97
2019-01-12T00:39:36.650Z,88.40
2019-01-12T00:42:06.273Z,76.43
2019-01-12T00:44:37.502Z,66.50
2019-01-12T00:47:06.488Z,70.27
2019-01-12T00:49:37.098Z,71.43
2019-01-12T00:52:06.067Z,71.43
2019-01-12T00:54:38.704Z,79.07
2019-01-12T00:57:05.926Z,80.17
2019-01-12T00:59:36.802Z,75.13
2019-01-12T01:02:06.499Z,74.10
2019-01-12T01:04:35.240Z,86.20
2019-01-12T01:07:03.841Z,81.10
2019-01-12T01:09:34.066Z,90.67
2019-01-12T01:12:02.891Z,79.40
2019-01-12T01:14:33.403Z,68.47
2019-01-12T01:17:01.584Z,81.00
2019-01-12T01:19:46.225Z,68.47
2019-01-12T01:22:14.708Z,84.03
2019-01-12T01:24:45.945Z,74.47
2019-01-12T01:27:13.290Z,77.93
2019-01-12T01:29:41.856Z,75.37
2019-01-12T01:32:10.452Z,67.43
2019-01-12T01:34:39.082Z,71.07
2019-01-12T01:37:08.024Z,66.07
2019-01-12T01:39:36.696Z,71.57
2019-01-12T01:42:05.666Z,78.57
2019-01-12T01:44:37.301Z,65.57
2019-01-12T01:47:06.141Z,72.13
2019-01-12T01:50:03.352Z,83.13
2019-01-12T01:52:33.759Z,80.13
2019-01-12T01:55:04.221Z,76.27
2019-01-12T01:57:35.679Z,77.83
2019-01-12T02:00:11.855Z,76.80
2019-01-12T02:02:40.652Z,77.17
2019-01-12T02:05:09.338Z,74.70
2019-01-12T02:07:37.977Z,71.07
2019-01-12T02:10:09.686Z,70.87
2019-01-12T02:12:38.295Z,81.03
2019-01-12T02:15:10.199Z,78.10
2019-01-12T02:17:38.799Z,74.83
2019-01-12T02:20:34.212Z,81.50
2019-01-12T02:23:05.698Z,72.23
2019-01-12T02:25:36.919Z,77.33
2019-01-12T02:28:06.510Z,73.63
2019-01-12T02:30:35.642Z,74.00
2019-01-12T02:33:05.655Z,80.13
2019-01-12T02:35:36.249Z,81.00
2019-01-12T02:38:06.181Z,74.23
2019-01-12T02:40:34.699Z,79.87
2019-01-12T02:43:04.994Z,84.17
2019-01-12T02:45:35.601Z,82.20
2019-01-12T02:48:05.829Z,77.30
2019-01-12T02:50:36.482Z,78.37
2019-01-12T02:53:06.071Z,74.47
2019-01-12T02:55:35.315Z,77.97
2019-01-12T02:58:05.569Z,78.23
2019-01-12T03:00:35.408Z,73.17
2019-01-12T03:03:06.179Z,87.20
2019-01-12T03:05:35.413Z,69.87
2019-01-12T03:08:06.405Z,78.10
2019-01-12T03:10:35.918Z,82.50
2019-01-12T03:13:06.045Z,77.20
2019-01-12T03:15:34.767Z,73.13
2019-01-12T03:18:03.849Z,71.37
2019-01-12T03:20:35.040Z,69.23
2019-01-12T03:23:03.830Z,76.03
2019-01-12T03:25:34.112Z,78.70
2019-01-12T03:28:03.072Z,76.80
2019-01-12T03:30:31.502Z,72.10
2019-01-12T03:32:59.947Z,77.43
2019-01-12T03:35:28.463Z,85.13
2019-01-12T03:37:57.077Z,75.87
2019-01-12T03:40:25.535Z,76.13
2019-01-12T03:42:54.012Z,73.90
2019-01-12T03:45:22.526Z,82.40
2019-01-12T03:47:51.111Z,76.87
2019-01-12T03:50:19.879Z,79.83
2019-01-12T03:52:48.370Z,101.90
2019-01-12T03:55:16.957Z,83.63
2019-01-12T03:57:45.384Z,96.07
2019-01-12T04:00:19.728Z,84.77
2019-01-12T04:02:48.176Z,87.50
2019-01-12T04:05:36.621Z,84.90
2019-01-12T04:08:06.490Z,91.07
2019-01-12T04:10:35.012Z,87.77
2019-01-12T04:13:04.777Z,96.50
2019-01-12T04:15:35.116Z,88.73
2019-01-12T04:18:06.750Z,100.77
2019-01-12T04:20:35.985Z,96.53
2019-01-12T04:23:04.537Z,91.23
2019-01-12T04:25:34.487Z,89.93
2019-01-12T04:28:07.590Z,101.17
2019-01-12T04:30:36.393Z,84.23
2019-01-12T04:33:05.957Z,86.67
2019-01-12T04:35:34.941Z,89.83
2019-01-12T04:38:04.820Z,88.53
2019-01-12T04:40:36.441Z,85.03
2019-01-12T04:43:05.643Z,78.67
2019-01-12T04:45:34.764Z,82.43
2019-01-12T04:48:04.956Z,83.23
2019-01-12T04:50:34.679Z,80.00
2019-01-12T04:53:03.645Z,93.60
2019-01-12T04:55:32.689Z,114.37
2019-01-12T04:58:06.221Z,78.83
2019-01-12T05:00:35.104Z,115.43
2019-01-12T05:03:03.760Z,72.87
2019-01-12T05:05:32.725Z,122.77
2019-01-12T05:08:01.155Z,71.83
2019-01-12T05:10:29.609Z,68.17
2019-01-12T05:12:58.053Z,72.17
2019-01-12T05:15:26.524Z,65.77
2019-01-12T05:17:55.663Z,72.87
2019-01-12T05:20:24.180Z,68.47
2019-01-12T05:22:53.207Z,66.27
2019-01-12T05:25:21.682Z,63.37
2019-01-12T05:27:50.110Z,58.13
2019-01-12T05:30:20.116Z,59.50
2019-01-12T05:32:48.641Z,66.67
2019-01-12T05:35:17.080Z,57.03
2019-01-12T05:38:06.675Z,57.07
2019-01-12T05:40:36.459Z,56.27
2019-01-12T05:43:04.998Z,60.00
2019-01-12T05:45:35.018Z,52.03
2019-01-12T05:48:04.968Z,57.03
2019-01-12T05:50:33.698Z,56.87
2019-01-12T05:53:04.375Z,53.67
2019-01-12T05:55:32.956Z,58.40
2019-01-12T05:58:01.486Z,51.93
2019-01-12T06:00:30.035Z,47.93
2019-01-12T06:02:58.518Z,49.57
2019-01-12T06:05:26.989Z,51.33
2019-01-12T06:07:55.529Z,49.03
2019-01-12T06:10:24.210Z,44.83
2019-01-12T06:12:52.741Z,45.50
2019-01-12T06:15:21.340Z,48.53
2019-01-12T06:17:49.813Z,48.37
2019-01-12T06:20:18.243Z,51.37
2019-01-12T06:22:46.716Z,47.57
2019-01-12T06:25:15.156Z,45.77
2019-01-12T06:27:43.973Z,47.50
2019-01-12T06:30:22.970Z,43.53
2019-01-12T06:32:51.438Z,39.50
2019-01-12T06:35:19.936Z,41.77
2019-01-12T06:37:48.463Z,43.73
2019-01-12T06:40:17.469Z,46.50
2019-01-12T06:42:45.916Z,41.57
2019-01-12T06:45:16.679Z,43.43
2019-01-12T06:47:45.323Z,46.23
2019-01-12T06:50:16.284Z,44.03
2019-01-12T06:52:44.716Z,38.10
2019-01-12T06:55:13.447Z,41.97
2019-01-12T06:57:42.260Z,39.20
2019-01-12T07:00:14.350Z,40.60
2019-01-12T07:02:42.796Z,40.93
2019-01-12T07:05:11.676Z,42.33
2019-01-12T07:07:40.184Z,48.17
2019-01-12T07:10:11.357Z,44.87
2019-01-12T07:12:40.019Z,42.30
2019-01-12T07:15:10.883Z,44.63
2019-01-12T07:17:40.044Z,41.00
2019-01-12T07:20:11.736Z,38.70
2019-01-12T07:22:40.239Z,31.47
2019-01-12T07:25:08.974Z,35.70
2019-01-12T07:27:39.564Z,32.60
2019-01-12T07:30:14.545Z,37.77
2019-01-12T07:32:43.040Z,31.60
2019-01-12T07:35:11.540Z,26.87
2019-01-12T07:37:39.992Z,35.90
2019-01-12T07:40:09.562Z,31.13
2019-01-12T07:42:38.291Z,26.13
2019-01-12T07:45:08.802Z,32.63
2019-01-12T07:47:37.492Z,30.77
2019-01-12T07:50:11.727Z,27.53
2019-01-12T07:52:40.868Z,30.53
2019-01-12T07:55:10.000Z,30.17
2019-01-12T07:57:39.810Z,30.73
2019-01-12T08:00:17.009Z,29.83
2019-01-12T08:02:45.516Z,27.80
2019-01-12T08:05:14.909Z,27.13
2019-01-12T08:07:43.388Z,29.30
2019-01-12T08:10:17.980Z,31.63
2019-01-12T08:12:46.410Z,30.43
2019-01-12T08:15:15.231Z,31.93
2019-01-12T08:17:43.687Z,29.63
2019-01-12T08:20:12.471Z,29.03
2019-01-12T08:22:40.917Z,31.20
2019-01-12T08:25:10.103Z,36.80
2019-01-12T08:27:38.947Z,33.90
2019-01-12T08:30:10.684Z,34.90
2019-01-12T08:32:39.559Z,34.50
2019-01-12T08:35:08.634Z,30.30
2019-01-12T08:37:37.718Z,30.70
2019-01-12T08:40:09.131Z,40.93
2019-01-12T08:42:38.241Z,30.93
2019-01-12T08:45:08.562Z,24.30
2019-01-12T08:47:37.162Z,23.73
2019-01-12T08:50:08.657Z,22.20
2019-01-12T08:52:37.276Z,21.63
2019-01-12T08:55:08.602Z,24.33
2019-01-12T08:57:38.522Z,25.10
2019-01-12T09:00:10.304Z,25.20
2019-01-12T09:02:39.541Z,21.90
2019-01-12T09:05:09.234Z,22.83
2019-01-12T09:07:37.820Z,21.73
2019-01-12T09:10:09.320Z,23.67
2019-01-12T09:12:37.780Z,21.97
2019-01-12T09:15:08.529Z,27.00
2019-01-12T09:17:37.146Z,21.00
2019-01-12T09:20:11.495Z,23.63
2019-01-12T09:22:39.971Z,24.17
2019-01-12T09:25:09.551Z,22.67
2019-01-12T09:27:38.507Z,25.50
2019-01-12T09:30:13.048Z,25.97
2019-01-12T09:32:41.509Z,22.50
2019-01-12T09:35:10.201Z,23.90
2019-01-12T09:37:39.199Z,26.13
2019-01-12T09:40:11.180Z,21.77
2019-01-12T09:42:58.933Z,25.37
2019-01-12T09:45:27.463Z,26.00
2019-01-12T09:48:03.482Z,23.17
2019-01-12T09:50:33.902Z,24.80
2019-01-12T09:53:05.434Z,24.63
2019-01-12T09:55:36.046Z,24.57
2019-01-12T09:58:04.592Z,22.07
2019-01-12T10:00:34.151Z,28.87
2019-01-12T10:03:03.144Z,23.43
2019-01-12T10:05:33.152Z,24.90
2019-01-12T10:08:04.885Z,21.60
2019-01-12T10:10:34.855Z,21.50
2019-01-12T10:13:04.999Z,24.97
2019-01-12T10:15:37.842Z,25.80
2019-01-12T10:18:06.328Z,27.87
2019-01-12T10:20:35.572Z,27.63
2019-01-12T10:23:05.162Z,28.80
2019-01-12T10:25:53.080Z,26.93
2019-01-12T10:28:21.740Z,25.93
2019-01-12T10:30:50.166Z,30.53
2019-01-12T10:33:19.203Z,24.30
2019-01-12T10:35:47.807Z,29.20
2019-01-12T10:38:16.287Z,25.87
2019-01-12T10:40:44.956Z,30.93
2019-01-12T10:43:13.461Z,27.27
2019-01-12T10:46:14.300Z,25.90
2019-01-12T10:48:47.036Z,29.07
2019-01-12T10:51:15.592Z,29.03
2019-01-12T10:53:44.696Z,30.67
2019-01-12T10:56:13.313Z,30.40
2019-01-12T10:58:41.839Z,33.47
2019-01-12T11:01:10.388Z,31.93
2019-01-12T11:03:39.139Z,32.40
2019-01-12T11:06:07.757Z,32.27
2019-01-12T11:08:36.823Z,25.87
2019-01-12T11:11:05.274Z,25.03
2019-01-12T11:13:33.935Z,24.40
2019-01-12T11:16:02.415Z,25.60
2019-01-12T11:18:31.157Z,25.63
2019-01-12T11:21:01.911Z,27.77
2019-01-12T11:23:30.397Z,30.77
2019-01-12T11:25:58.876Z,28.23
2019-01-12T11:28:28.294Z,33.00
2019-01-12T11:30:56.758Z,31.07
2019-01-12T11:33:26.947Z,31.00
2019-01-12T11:35:55.453Z,27.73
2019-01-12T11:38:23.943Z,26.30
2019-01-12T11:40:52.430Z,19.93
2019-01-12T11:43:20.882Z,21.90
2019-01-12T11:45:57.428Z,21.23
2019-01-12T11:48:26.220Z,25.17
2019-01-12T11:50:57.830Z,21.53
2019-01-12T11:53:26.327Z,15.60
2019-01-12T11:55:54.773Z,17.43
2019-01-12T11:58:23.228Z,23.70
2019-01-12T12:00:51.733Z,25.07
2019-01-12T12:03:20.565Z,26.43
2019-01-12T12:05:49.111Z,19.57
2019-01-12T12:08:17.607Z,24.37
2019-01-12T12:10:47.271Z,17.63
2019-01-12T12:13:15.839Z,24.73
2019-01-12T12:15:44.250Z,24.47
2019-01-12T12:18:32.109Z,24.30
2019-01-12T12:21:00.538Z,28.10
2019-01-12T12:23:29.025Z,27.60
2019-01-12T12:25:59.419Z,28.50
2019-01-12T12:28:27.933Z,27.47
2019-01-12T12:30:56.446Z,31.13
2019-01-12T12:33:41.712Z,33.13
2019-01-12T12:36:11.279Z,23.67
2019-01-12T12:38:47.220Z,27.83
2019-01-12T12:41:28.196Z,25.63
2019-01-12T12:44:00.284Z,31.50
2019-01-12T12:46:28.980Z,29.57
2019-01-12T12:48:57.467Z,24.77
2019-01-12T12:51:25.969Z,27.67
2019-01-12T12:53:54.659Z,27.37
2019-01-12T12:56:23.184Z,20.90
2019-01-12T12:58:51.820Z,28.17
2019-01-12T13:01:20.297Z,31.67
2019-01-12T13:03:48.763Z,21.30
2019-01-12T13:06:17.198Z,21.60
2019-01-12T13:08:48.587Z,21.97
2019-01-12T13:11:16.087Z,25.13
2019-01-12T13:13:44.542Z,23.03
2019-01-12T13:16:13.883Z,23.17
2019-01-12T13:18:42.323Z,22.17
2019-01-12T13:21:10.768Z,24.90
2019-01-12T13:23:40.285Z,22.40
2019-01-12T13:26:08.743Z,23.40
2019-01-12T13:28:37.170Z,24.63
2019-01-12T13:31:05.767Z,21.83
2019-01-12T13:33:34.499Z,20.50
2019-01-12T13:36:03.935Z,24.43
2019-01-12T13:38:32.357Z,17.50
2019-01-12T13:41:00.907Z,20.73
2019-01-12T13:43:29.326Z,22.60
2019-01-12T13:45:57.837Z,21.40
2019-01-12T13:48:26.435Z,23.07
2019-01-12T13:50:55.108Z,17.67
2019-01-12T13:53:24.404Z,21.23
2019-01-12T13:55:52.883Z,22.33
2019-01-12T13:58:21.387Z,21.20
2019-01-12T14:00:50.546Z,18.00
2019-01-12T14:03:19.034Z,19.10
2019-01-12T14:05:59.988Z,16.53
2019-01-12T14:08:28.463Z,16.60
2019-01-12T14:11:00.066Z,18.70
2019-01-12T14:13:28.562Z,15.53
2019-01-12T14:15:58.966Z,16.70
2019-01-12T14:18:27.599Z,15.87
2019-01-12T14:20:59.777Z,16.77
2019-01-12T14:23:28.604Z,16.53
2019-01-12T14:25:57.501Z,14.83
2019-01-12T14:28:26.342Z,17.97
2019-01-12T14:30:56.009Z,16.10
2019-01-12T14:33:27.820Z,15.87
2019-01-12T14:35:59.312Z,17.93
2019-01-12T14:38:28.196Z,16.90
2019-01-12T14:40:56.763Z,17.87
2019-01-12T14:43:25.841Z,16.77
2019-01-12T14:45:54.396Z,19.20
2019-01-12T14:48:22.995Z,20.53
2019-01-12T14:50:51.954Z,18.67
2019-01-12T14:53:20.458Z,19.47
2019-01-12T14:55:48.914Z,21.43
2019-01-12T14:58:17.458Z,17.97
2019-01-12T15:01:07.151Z,17.20
2019-01-12T15:03:35.915Z,18.97
2019-01-12T15:06:06.477Z,16.90
2019-01-12T15:08:40.731Z,20.10
2019-01-12T15:11:11.593Z,21.20
2019-01-12T15:13:40.122Z,19.07
2019-01-12T15:16:11.520Z,21.87
2019-01-12T15:18:40.039Z,21.80
2019-01-12T15:21:10.599Z,20.30
2019-01-12T15:23:39.437Z,21.17
2019-01-12T15:26:09.932Z,19.13
2019-01-12T15:28:38.346Z,20.33
2019-01-12T15:31:09.160Z,20.53
2019-01-12T15:33:39.280Z,20.40
2019-01-12T15:36:08.128Z,19.67
2019-01-12T15:38:36.674Z,25.07
2019-01-12T15:41:05.262Z,21.40
2019-01-12T15:43:34.317Z,28.53
2019-01-12T15:46:03.546Z,21.57
2019-01-12T15:48:32.523Z,22.50
2019-01-12T15:51:01.356Z,20.47
2019-01-12T15:53:30.039Z,22.70
2019-01-12T15:56:01.938Z,23.33
2019-01-12T15:58:40.479Z,21.37
2019-01-12T16:01:09.053Z,22.93
2019-01-12T16:03:37.482Z,24.27
2019-01-12T16:06:13.638Z,21.30
2019-01-12T16:08:42.151Z,24.93
2019-01-12T16:11:10.825Z,21.27
2019-01-12T16:13:39.456Z,21.50
2019-01-12T16:16:07.951Z,22.80
2019-01-12T16:18:46.568Z,24.27
2019-01-12T16:21:16.014Z,18.20
2019-01-12T16:23:44.780Z,18.27
2019-01-12T16:26:14.138Z,20.67
2019-01-12T16:28:43.820Z,23.30
2019-01-12T16:31:13.757Z,21.00
2019-01-12T16:33:42.276Z,26.90
2019-01-12T16:36:11.250Z,29.07
2019-01-12T16:38:40.336Z,19.03
2019-01-12T16:41:08.848Z,12.77
2019-01-12T16:43:43.044Z,18.53
2019-01-12T16:46:11.563Z,14.70
2019-01-12T16:48:59.325Z,18.47
2019-01-12T16:51:27.882Z,15.47
2019-01-12T16:53:56.297Z,15.87
2019-01-12T16:56:24.951Z,16.70
2019-01-12T16:59:13.091Z,16.37
2019-01-12T17:01:41.545Z,16.67
2019-01-12T17:04:10.384Z,15.20
2019-01-12T17:06:38.887Z,15.10
2019-01-12T17:09:10.942Z,15.77
2019-01-12T17:11:39.364Z,17.20
2019-01-12T17:14:08.109Z,19.23
2019-01-12T17:16:37.029Z,15.33
2019-01-12T17:19:06.095Z,17.83
2019-01-12T17:21:36.478Z,15.23
2019-01-12T17:24:08.126Z,18.40
2019-01-12T17:26:36.731Z,16.97
2019-01-12T17:29:07.959Z,13.40
2019-01-12T17:31:36.757Z,16.93
2019-01-12T17:34:07.136Z,9.43
2019-01-12T17:36:38.017Z,12.47
2019-01-12T17:39:09.180Z,12.07
2019-01-12T17:41:38.723Z,14.57
2019-01-12T17:44:28.076Z,15.43
2019-01-12T17:46:56.475Z,14.53
2019-01-12T17:49:25.002Z,14.00
2019-01-12T17:51:53.488Z,16.77
2019-01-12T17:54:21.940Z,13.13
2019-01-12T17:56:50.411Z,14.43
2019-01-12T17:59:18.941Z,16.00
2019-01-12T18:01:47.415Z,14.47
2019-01-12T18:04:15.857Z,13.87
2019-01-12T18:06:44.329Z,13.17
2019-01-12T18:09:12.765Z,17.20
2019-01-12T18:11:41.442Z,15.97
2019-01-12T18:14:09.874Z,13.93
2019-01-12T18:16:46.817Z,15.67
2019-01-12T18:19:15.516Z,15.30
2019-01-12T18:21:43.968Z,12.60
2019-01-12T18:24:12.392Z,12.93
2019-01-12T18:26:40.854Z,15.13
2019-01-12T18:29:10.673Z,12.97
2019-01-12T18:31:39.592Z,11.73
2019-01-12T18:34:08.040Z,11.37
2019-01-12T18:36:36.974Z,11.47
2019-01-12T18:39:07.140Z,13.87
2019-01-12T18:41:37.054Z,12.30
2019-01-12T18:44:05.893Z,8.47
2019-01-12T18:46:35.260Z,9.17
2019-01-12T18:49:05.319Z,9.40
2019-01-12T18:51:36.097Z,8.87
2019-01-12T18:54:10.341Z,10.30
2019-01-12T18:56:38.762Z,7.00
2019-01-12T18:59:07.191Z,7.63
2019-01-12T19:01:35.616Z,4.73
2019-01-12T19:04:06.269Z,5.33
2019-01-12T19:06:34.758Z,5.47
2019-01-12T19:09:04.847Z,5.87
2019-01-12T19:11:34.833Z,6.47
2019-01-12T19:14:03.351Z,6.07
2019-01-12T19:16:32.584Z,4.83
2019-01-12T19:19:01.008Z,4.63
2019-01-12T19:21:29.453Z,5.27
2019-01-12T19:23:57.879Z,6.43
2019-01-12T19:26:26.327Z,4.13
2019-01-12T19:31:41.220Z,3.80
2019-01-12T19:34:09.625Z,4.30
2019-01-12T19:36:38.064Z,4.40
2019-01-12T19:39:07.620Z,3.63
2019-01-12T19:41:36.123Z,4.63
2019-01-12T19:44:04.633Z,4.47
2019-01-12T19:46:33.168Z,4.73
2019-01-12T19:49:01.589Z,3.47
2019-01-12T19:51:30.015Z,5.03
2019-01-12T19:53:58.421Z,4.10
2019-01-12T19:56:26.848Z,5.40
2019-01-12T19:58:55.256Z,4.50
2019-01-12T20:01:23.724Z,4.27
2019-01-12T20:03:52.134Z,5.17
2019-01-12T20:06:20.813Z,5.50
2019-01-12T20:08:50.324Z,4.50
2019-01-12T20:11:18.782Z,4.13
2019-01-12T20:13:47.207Z,2.77
2019-01-12T20:16:15.630Z,3.90
2019-01-12T20:18:48.348Z,4.43
2019-01-12T20:21:17.209Z,3.40
2019-01-12T20:23:45.707Z,3.20
2019-01-12T20:26:14.123Z,3.03
2019-01-12T20:28:42.582Z,3.27
2019-01-12T20:31:22.920Z,2.20
2019-01-12T20:33:55.815Z,3.97
2019-01-12T20:36:33.267Z,2.50
2019-01-12T20:39:07.579Z,4.33
2019-01-12T20:41:42.014Z,2.57
2019-01-12T20:44:22.408Z,2.53
2019-01-12T20:47:09.025Z,3.80
2019-01-12T20:49:40.687Z,3.50
2019-01-12T20:52:39.231Z,3.37
2019-01-12T20:55:13.417Z,2.87
2019-01-12T20:58:06.332Z,3.37
2019-01-12T21:00:52.945Z,3.00
2019-01-12T21:03:50.342Z,2.83
2019-01-12T21:06:38.889Z,3.27
2019-01-12T21:09:10.454Z,3.37
2019-01-12T21:11:56.232Z,4.97
2019-01-12T21:14:45.609Z,4.67
2019-01-12T21:17:14.087Z,4.60
2019-01-12T21:19:47.978Z,4.70
2019-01-12T21:22:21.639Z,5.83
2019-01-12T21:24:50.080Z,5.17
2019-01-12T21:27:18.537Z,5.70
2019-01-12T21:29:46.985Z,5.53
2019-01-12T21:32:15.437Z,6.23
2019-01-12T21:34:44.001Z,6.07
2019-01-12T21:37:12.429Z,7.30
2019-01-12T21:40:00.269Z,6.83
2019-01-12T21:42:28.709Z,6.47
2019-01-12T21:44:57.127Z,7.47
2019-01-12T21:47:25.558Z,7.73
2019-01-12T21:49:54.093Z,6.40
2019-01-12T21:52:22.524Z,8.30
2019-01-12T21:54:50.936Z,8.47
2019-01-12T21:57:19.759Z,9.77
2019-01-12T21:59:49.260Z,8.70
2019-01-12T22:02:17.694Z,8.93
2019-01-12T22:04:46.133Z,9.93
2019-01-12T22:07:14.623Z,10.80
2019-01-12T22:09:43.068Z,9.70
2019-01-12T22:12:11.483Z,10.73
2019-01-12T22:14:45.119Z,9.73
2019-01-12T22:17:13.564Z,9.63
2019-01-12T22:19:51.567Z,10.63
2019-01-12T22:22:20.247Z,10.47
2019-01-12T22:24:48.694Z,9.43
2019-01-12T22:27:17.128Z,12.20
2019-01-12T22:29:49.811Z,10.37
2019-01-12T22:32:19.759Z,8.57
2019-01-12T22:34:48.167Z,9.90
2019-01-12T22:37:16.589Z,10.63
2019-01-12T22:39:45.022Z,8.73
2019-01-12T22:42:13.483Z,7.67
2019-01-12T22:44:41.929Z,8.50
2019-01-12T22:47:10.365Z,9.90
2019-01-12T22:49:38.894Z,8.37
2019-01-12T22:52:26.733Z,9.40
2019-01-12T22:54:55.569Z,8.50
2019-01-12T22:57:23.991Z,9.13
2019-01-12T22:59:56.992Z,8.53
2019-01-12T23:02:22.635Z,8.97
2019-01-12T23:04:51.076Z,10.77
2019-01-12T23:07:19.699Z,9.23
2019-01-12T23:09:48.224Z,10.60
2019-01-12T23:12:16.645Z,9.93
2019-01-12T23:14:45.088Z,9.70
2019-01-12T23:17:13.524Z,10.87
2019-01-12T23:19:42.104Z,14.00
2019-01-12T23:22:11.106Z,13.50
2019-01-12T23:24:45.006Z,14.47
2019-01-12T23:27:13.836Z,15.03
2019-01-12T23:29:42.317Z,15.33
2019-01-12T23:32:10.860Z,13.40
2019-01-12T23:34:39.393Z,13.63
2019-01-12T23:37:07.880Z,18.60
2019-01-12T23:39:36.416Z,14.23
2019-01-12T23:42:06.637Z,13.57
2019-01-12T23:44:35.373Z,9.83
2019-01-12T23:47:04.407Z,13.87
2019-01-12T23:49:34.786Z,16.33
2019-01-12T23:52:15.544Z,13.67
2019-01-12T23:54:44.224Z,12.47
2019-01-12T23:57:13.068Z,11.97
2019-01-12T23:59:41.518Z,13.07
